Time;durP1;ratioP1;P1;durP2;ratioP2;P2;SDS_P1;SDS_P2;PMS_P1;PMS_P2;Temp;Humidity;BMP_temperature;BMP_pressure;BME280_temperature;BME280_humidity;BME280_pressure;Samples;Min_cycle;Max_cycle;Signal;HPM_P1;HPM_P2
2021/04/21 00:01:20;;;;;;;21.45;14.43;;;5.20;99.90;;;;;;5062126;28;20103;-64
2021/04/21 00:03:47;;;;;;;19.63;13.30;;;5.20;99.90;;;;;;5049970;28;20033;-61
2021/04/21 00:06:14;;;;;;;20.33;13.93;;;5.10;99.90;;;;;;5051960;28;20029;-61
2021/04/21 00:08:40;;;;;;;21.42;14.35;;;5.10;99.90;;;;;;5052312;28;20029;-66
2021/04/21 00:11:07;;;;;;;20.75;14.13;;;5.10;99.90;;;;;;5065633;28;20028;-66
2021/04/21 00:13:33;;;;;;;21.75;14.80;;;5.10;99.90;;;;;;5066418;28;20032;-67
2021/04/21 00:15:59;;;;;;;19.95;13.73;;;5.10;99.90;;;;;;5066613;28;20450;-64
2021/04/21 00:18:25;;;;;;;20.55;13.95;;;5.10;99.90;;;;;;5063847;28;20039;-64
2021/04/21 00:20:57;;;;;;;21.65;15.13;;;5.10;99.90;;;;;;5061780;28;20576;-64
2021/04/21 00:23:24;;;;;;;21.23;14.27;;;5.00;99.90;;;;;;5065497;28;20029;-62
2021/04/21 00:25:54;;;;;;;24.75;15.23;;;5.00;99.90;;;;;;5050262;28;20061;-61
2021/04/21 00:28:24;;;;;;;21.63;14.38;;;5.00;99.90;;;;;;5059417;28;20499;-63
2021/04/21 00:30:52;;;;;;;21.63;14.73;;;4.90;99.90;;;;;;5062841;28;20084;-64
2021/04/21 00:33:19;;;;;;;21.65;14.90;;;4.90;99.90;;;;;;5058838;28;20474;-66
2021/04/21 00:35:46;;;;;;;22.80;14.68;;;4.90;99.90;;;;;;5050828;28;20027;-66
2021/04/21 00:38:18;;;;;;;24.38;15.38;;;4.80;99.90;;;;;;5051887;28;20117;-61
2021/04/21 00:40:43;;;;;;;26.73;17.25;;;4.80;99.90;;;;;;5044511;28;20386;-62
2021/04/21 00:43:29;;;;;;;21.60;15.13;;;4.80;99.90;;;;;;5068697;28;20078;-64
2021/04/21 00:46:10;;;;;;;21.40;14.98;;;4.80;99.90;;;;;;5059118;28;20024;-64
2021/04/21 00:48:44;;;;;;;25.65;16.48;;;4.80;99.90;;;;;;5056301;28;20020;-67
2021/04/21 00:51:40;;;;;;;21.95;15.35;;;4.80;99.90;;;;;;5068059;28;20031;-61
2021/04/21 00:54:18;;;;;;;23.52;15.38;;;4.70;99.90;;;;;;5052040;28;20036;-66
2021/04/21 00:56:53;;;;;;;24.58;16.67;;;4.70;99.90;;;;;;5050296;28;20104;-63
2021/04/21 00:59:42;;;;;;;24.00;16.77;;;4.70;99.90;;;;;;5067146;28;20460;-62
2021/04/21 01:02:09;;;;;;;27.98;17.67;;;4.60;99.90;;;;;;5062570;28;20099;-65
2021/04/21 01:04:39;;;;;;;27.55;18.55;;;4.60;99.90;;;;;;5053828;28;20068;-67
2021/04/21 01:07:06;;;;;;;30.85;18.25;;;4.60;99.90;;;;;;5050984;28;20033;-64
2021/04/21 01:09:32;;;;;;;26.83;16.88;;;4.60;99.90;;;;;;5067747;28;20039;-63
2021/04/21 01:12:02;;;;;;;25.77;17.13;;;4.70;99.90;;;;;;5067093;28;20029;-63
2021/04/21 01:14:33;;;;;;;26.73;16.45;;;4.60;99.90;;;;;;5062109;28;20082;-65
2021/04/21 01:17:03;;;;;;;27.40;18.75;;;4.60;99.90;;;;;;5055580;28;20032;-66
2021/04/21 01:20:03;;;;;;;30.10;18.83;;;4.60;99.90;;;;;;5060060;28;20124;-63
2021/04/21 01:22:47;;;;;;;27.52;17.27;;;4.60;99.90;;;;;;5051346;28;20033;-63
2021/04/21 01:25:34;;;;;;;28.80;16.48;;;4.60;99.90;;;;;;5056990;28;20041;-61
2021/04/21 01:28:01;;;;;;;23.42;16.55;;;4.50;99.90;;;;;;5057109;28;20105;-64
2021/04/21 01:30:30;;;;;;;31.45;18.23;;;4.50;99.90;;;;;;5063628;28;20029;-67
2021/04/21 01:33:00;;;;;;;25.75;17.48;;;4.50;99.90;;;;;;5062883;28;20029;-62
2021/04/21 01:35:28;;;;;;;25.58;17.85;;;4.40;99.90;;;;;;5068348;28;20020;-62
2021/04/21 01:37:57;;;;;;;29.40;18.42;;;4.40;99.90;;;;;;5059953;28;20161;-62
2021/04/21 01:40:35;;;;;;;26.55;17.90;;;4.40;99.90;;;;;;5073564;28;20112;-64
2021/04/21 01:43:09;;;;;;;26.23;17.27;;;4.30;99.90;;;;;;5068498;28;20030;-64
2021/04/21 01:45:37;;;;;;;25.83;17.42;;;4.30;99.90;;;;;;5062197;28;20033;-66
2021/04/21 01:48:12;;;;;;;26.83;18.30;;;4.30;99.90;;;;;;5056649;28;20029;-62
2021/04/21 01:50:38;;;;;;;25.42;17.20;;;4.20;99.90;;;;;;5062277;28;20469;-65
2021/04/21 01:53:23;;;;;;;30.02;18.98;;;4.20;99.90;;;;;;5074033;28;20029;-63
2021/04/21 01:55:55;;;;;;;27.55;18.88;;;4.20;99.90;;;;;;5066229;28;20465;-63
2021/04/21 01:58:30;;;;;;;27.33;17.92;;;4.20;99.90;;;;;;5065209;28;20048;-65
2021/04/21 02:01:11;;;;;;;29.15;19.52;;;4.20;99.90;;;;;;5055370;28;20095;-63
2021/04/21 02:03:39;;;;;;;;;;;4.10;99.90;;;;;;5056749;28;20045;-66
2021/04/21 02:06:30;;;;;;;27.90;18.92;;;4.10;99.90;;;;;;5069766;28;20476;-62
2021/04/21 02:09:10;;;;;;;27.90;17.80;;;4.10;99.90;;;;;;5055680;28;20603;-62
2021/04/21 02:11:37;;;;;;;;;;;4.10;99.90;;;;;;5066148;28;20036;-66
2021/04/21 02:14:16;;;;;;;28.67;18.40;;;4.00;99.90;;;;;;5074647;28;19962;-63
2021/04/21 02:16:52;;;;;;;30.97;19.77;;;4.00;99.90;;;;;;5070632;28;20039;-63
2021/04/21 02:19:43;;;;;;;31.67;19.58;;;3.90;99.90;;;;;;5062491;28;20108;-61
2021/04/21 02:22:36;;;;;;;29.40;19.13;;;3.90;99.90;;;;;;5053692;28;20025;-64
2021/04/21 02:25:09;;;;;;;35.38;19.42;;;3.90;99.90;;;;;;5057972;28;20592;-62
2021/04/21 02:27:59;;;;;;;34.95;20.95;;;3.80;99.90;;;;;;5068723;28;20037;-65
2021/04/21 02:30:33;;;;;;;37.42;22.80;;;3.80;99.90;;;;;;5054279;28;20040;-65
2021/04/21 02:33:13;;;;;;;43.35;23.52;;;3.80;99.90;;;;;;5052887;28;20665;-63
2021/04/21 02:35:45;;;;;;;35.97;21.58;;;3.80;99.90;;;;;;5064034;28;20029;-66
2021/04/21 02:38:26;;;;;;;34.67;21.30;;;3.90;99.90;;;;;;5065515;28;20025;-61
2021/04/21 02:41:16;;;;;;;32.10;21.30;;;3.80;99.90;;;;;;5054897;28;20036;-61
2021/04/21 02:44:03;;;;;;;32.55;20.23;;;3.80;99.90;;;;;;5055354;28;20032;-63
2021/04/21 02:46:56;;;;;;;31.58;19.70;;;3.70;99.90;;;;;;5063865;28;20024;-64
2021/04/21 02:49:31;;;;;;;35.88;22.05;;;3.70;99.90;;;;;;5053070;28;20024;-63
2021/04/21 02:52:38;;;;;;;34.08;22.08;;;3.60;99.90;;;;;;5070763;28;20028;-64
2021/04/21 02:55:23;;;;;;;32.72;20.02;;;3.60;99.90;;;;;;5029369;28;20082;-62
2021/04/21 02:58:09;;;;;;;32.33;20.42;;;3.60;99.90;;;;;;5071686;28;20484;-64
2021/04/21 03:00:58;;;;;;;34.58;21.23;;;3.50;99.90;;;;;;5071581;28;20033;-61
2021/04/21 03:03:46;;;;;;;35.95;21.27;;;3.50;99.90;;;;;;5060925;28;20500;-59
2021/04/21 03:06:27;;;;;;;38.67;23.23;;;3.50;99.90;;;;;;5058760;28;20029;-60
2021/04/21 03:09:05;;;;;;;41.45;24.17;;;3.50;99.90;;;;;;5055343;28;20116;-62
2021/04/21 03:11:32;;;;;;;38.65;24.42;;;3.50;99.90;;;;;;5066101;28;20040;-62
2021/04/21 03:14:05;;;;;;;38.22;23.45;;;3.60;99.90;;;;;;5051900;28;20039;-62
2021/04/21 03:16:41;;;;;;;38.60;22.27;;;3.60;99.90;;;;;;5052065;28;20028;-63
2021/04/21 03:19:10;;;;;;;38.47;23.33;;;3.60;99.90;;;;;;5053884;28;20342;-61
2021/04/21 03:21:39;;;;;;;39.40;23.75;;;3.60;99.90;;;;;;5061468;28;20108;-62
2021/04/21 03:24:16;;;;;;;46.97;25.83;;;3.60;99.90;;;;;;5052191;28;20103;-62
2021/04/21 03:26:47;;;;;;;39.85;25.27;;;3.60;99.90;;;;;;5051523;28;20373;-63
2021/04/21 03:29:19;;;;;;;41.67;24.30;;;3.60;99.90;;;;;;5060727;28;20109;-65
2021/04/21 03:31:47;;;;;;;39.20;24.20;;;3.60;99.90;;;;;;5060078;28;20120;-65
2021/04/21 03:34:16;;;;;;;39.58;24.63;;;3.60;99.90;;;;;;5052797;28;20029;-62
2021/04/21 03:36:43;;;;;;;41.90;23.88;;;3.50;99.90;;;;;;5064758;28;20028;-65
2021/04/21 03:39:10;;;;;;;40.08;23.65;;;3.50;99.90;;;;;;5061398;28;20031;-63
2021/04/21 03:41:37;;;;;;;42.00;24.15;;;3.50;99.90;;;;;;5060140;28;20033;-65
2021/04/21 03:44:03;;;;;;;37.40;22.95;;;3.40;99.90;;;;;;5069706;28;20119;-64
2021/04/21 03:46:30;;;;;;;38.28;24.73;;;3.40;99.90;;;;;;5051845;28;20395;-65
2021/04/21 03:48:57;;;;;;;39.42;23.95;;;3.30;99.90;;;;;;5050791;28;20033;-65
2021/04/21 03:51:23;;;;;;;36.78;23.13;;;3.30;99.90;;;;;;5063692;28;20427;-61
2021/04/21 03:53:51;;;;;;;38.97;24.25;;;3.20;99.90;;;;;;5070416;28;20103;-62
2021/04/21 03:56:18;;;;;;;42.83;25.33;;;3.20;99.90;;;;;;5061417;28;20493;-62
2021/04/21 03:58:46;;;;;;;45.65;25.27;;;3.10;99.90;;;;;;5050791;28;20049;-60
2021/04/21 04:01:18;;;;;;;45.70;26.30;;;3.10;99.90;;;;;;5052924;28;20056;-65
2021/04/21 04:03:54;;;;;;;39.83;23.20;;;3.10;99.90;;;;;;5066332;28;20055;-65
2021/04/21 04:06:43;;;;;;;43.83;25.60;;;3.10;99.90;;;;;;5055298;28;20386;-62
2021/04/21 04:09:10;;;;;;;46.97;25.70;;;3.10;99.90;;;;;;5051760;28;20040;-65
2021/04/21 04:11:44;;;;;;;41.63;25.52;;;3.00;99.90;;;;;;5055560;28;20028;-62
2021/04/21 04:14:31;;;;;;;40.78;24.58;;;3.00;99.90;;;;;;5052901;28;20033;-65
2021/04/21 04:17:03;;;;;;;45.47;25.75;;;3.00;99.90;;;;;;5063649;28;20032;-62
2021/04/21 04:19:32;;;;;;;47.08;26.92;;;3.00;99.90;;;;;;5070866;28;20028;-62
2021/04/21 04:22:18;;;;;;;47.40;27.33;;;3.00;99.90;;;;;;5069505;28;20477;-64
2021/04/21 04:24:44;;;;;;;48.50;26.98;;;3.00;99.90;;;;;;5066704;28;20824;-67
2021/04/21 04:27:15;;;;;;;51.78;29.73;;;3.00;99.90;;;;;;5066636;28;20346;-65
2021/04/21 04:29:43;;;;;;;54.75;32.30;;;3.00;99.90;;;;;;5068955;28;20487;-70
2021/04/21 04:32:15;;;;;;;53.85;30.38;;;3.10;99.90;;;;;;5069479;28;20040;-63
2021/04/21 04:34:49;;;;;;;59.00;30.30;;;3.10;99.90;;;;;;5061405;28;20060;-67
2021/04/21 04:37:17;;;;;;;54.92;29.27;;;3.20;99.90;;;;;;5070971;28;20040;-67
2021/04/21 04:39:43;;;;;;;51.45;29.30;;;3.20;99.90;;;;;;5068524;28;20096;-67
2021/04/21 04:42:10;;;;;;;47.45;27.15;;;3.20;99.90;;;;;;5062761;28;20021;-65
2021/04/21 04:44:40;;;;;;;52.78;29.05;;;3.20;99.90;;;;;;5061629;28;20568;-65
2021/04/21 04:47:08;;;;;;;46.45;27.73;;;3.20;99.90;;;;;;5066169;28;20044;-65
2021/04/21 04:49:57;;;;;;;45.38;27.15;;;3.20;99.90;;;;;;5068190;28;20041;-63
2021/04/21 04:52:25;;;;;;;47.70;27.40;;;3.20;99.90;;;;;;5059513;28;20052;-66
2021/04/21 04:54:54;;;;;;;51.03;29.00;;;3.20;99.90;;;;;;5055433;28;20045;-66
2021/04/21 04:57:21;;;;;;;46.83;28.88;;;3.30;99.90;;;;;;5050741;28;20359;-65
2021/04/21 04:59:48;;;;;;;48.53;28.25;;;3.30;99.90;;;;;;5057662;28;20860;-65
2021/04/21 05:02:17;;;;;;;51.97;28.70;;;3.40;99.90;;;;;;5057066;28;20026;-65
2021/04/21 05:05:18;;;;;;;53.28;29.63;;;3.50;99.90;;;;;;5064364;28;20041;-66
2021/04/21 05:08:03;;;;;;;52.00;29.10;;;3.50;99.90;;;;;;5049952;28;20041;-68
2021/04/21 05:10:34;;;;;;;48.38;28.35;;;3.60;99.90;;;;;;5062575;28;20102;-62
2021/04/21 05:13:04;;;;;;;46.35;26.88;;;3.70;99.90;;;;;;5055571;28;20033;-66
2021/04/21 05:15:32;;;;;;;48.13;26.80;;;3.80;99.90;;;;;;5054841;28;20059;-61
2021/04/21 05:18:37;;;;;;;43.13;26.13;;;3.80;99.90;;;;;;5053865;28;20056;-64
2021/04/21 05:21:27;;;;;;;42.45;26.30;;;4.00;99.90;;;;;;5043860;28;20036;-64
2021/04/21 05:24:13;;;;;;;42.30;25.20;;;4.10;99.90;;;;;;5072649;28;20037;-65
2021/04/21 05:27:01;;;;;;;44.95;26.30;;;4.20;99.90;;;;;;5073608;28;20031;-65
2021/04/21 05:29:36;;;;;;;44.75;26.13;;;4.20;99.90;;;;;;5073766;28;20039;-66
2021/04/21 05:32:36;;;;;;;43.63;25.52;;;4.40;99.90;;;;;;5070678;28;20035;-64
2021/04/21 05:35:18;;;;;;;42.97;26.17;;;4.50;99.90;;;;;;5053375;28;20037;-68
2021/04/21 05:37:55;;;;;;;42.70;25.67;;;4.60;99.90;;;;;;5054936;28;20132;-67
2021/04/21 05:40:33;;;;;;;39.95;24.20;;;4.70;99.90;;;;;;5054051;28;20029;-63
2021/04/21 05:43:36;;;;;;;38.67;24.13;;;4.90;99.90;;;;;;5057248;28;20039;-67
2021/04/21 05:46:20;;;;;;;43.33;25.58;;;5.00;99.90;;;;;;5068546;28;20152;-66
2021/04/21 05:49:05;;;;;;;41.25;24.88;;;5.20;99.90;;;;;;5065982;28;20025;-68
2021/04/21 05:51:34;;;;;;;38.20;24.50;;;5.40;99.90;;;;;;5068089;28;20031;-64
2021/04/21 05:54:27;;;;;;;33.70;23.30;;;5.50;99.90;;;;;;5053203;28;20116;-64
2021/04/21 05:57:13;;;;;;;36.78;24.70;;;5.60;99.90;;;;;;5053114;28;20033;-64
2021/04/21 05:59:54;;;;;;;37.05;23.05;;;5.70;99.90;;;;;;5053742;28;20033;-63
2021/04/21 06:02:24;;;;;;;36.75;23.65;;;5.80;99.90;;;;;;5067318;28;20029;-66
2021/04/21 06:05:03;;;;;;;35.33;22.50;;;5.90;99.90;;;;;;5071687;28;20107;-63
2021/04/21 06:07:28;;;;;;;40.40;23.90;;;6.00;99.90;;;;;;5071190;28;20033;-66
2021/04/21 06:09:54;;;;;;;40.42;23.20;;;6.10;99.90;;;;;;5063087;28;20032;-66
2021/04/21 06:12:23;;;;;;;36.97;23.27;;;6.20;99.90;;;;;;5053417;28;20029;-65
2021/04/21 06:14:51;;;;;;;34.15;23.40;;;6.40;99.90;;;;;;5056924;28;20103;-66
2021/04/21 06:17:24;;;;;;;37.10;24.67;;;6.40;99.90;;;;;;5070609;28;20028;-64
2021/04/21 06:19:51;;;;;;;36.85;22.70;;;6.50;99.90;;;;;;5057780;28;20086;-65
2021/04/21 06:22:27;;;;;;;30.88;21.75;;;6.60;99.90;;;;;;5065437;28;20040;-63
2021/04/21 06:25:08;;;;;;;33.05;22.25;;;6.70;99.90;;;;;;5063091;28;20060;-65
2021/04/21 06:27:33;;;;;;;;;;;6.80;99.90;;;;;;5051662;28;20037;-64
2021/04/21 06:30:06;;;;;;;32.10;21.83;;;6.80;99.90;;;;;;5054239;28;19921;-65
2021/04/21 06:32:32;;;;;;;35.45;24.35;;;7.00;99.90;;;;;;5061809;28;20528;-65
2021/04/21 06:35:06;;;;;;;37.60;24.02;;;7.10;99.90;;;;;;5059675;28;20474;-65
2021/04/21 06:37:32;;;;;;;36.10;23.52;;;7.20;99.90;;;;;;5053759;28;20070;-67
2021/04/21 06:40:05;;;;;;;31.77;21.88;;;7.40;99.90;;;;;;5066775;28;20493;-63
2021/04/21 06:42:32;;;;;;;36.67;24.17;;;7.50;99.70;;;;;;5050619;28;20033;-64
2021/04/21 06:44:58;;;;;;;31.65;21.70;;;7.60;98.60;;;;;;5061789;28;20119;-63
2021/04/21 06:47:27;;;;;;;34.42;22.75;;;7.80;98.30;;;;;;5065685;28;20108;-66
2021/04/21 06:50:09;;;;;;;34.65;23.08;;;8.00;97.60;;;;;;5051684;28;20041;-67
2021/04/21 06:52:37;;;;;;;31.92;21.20;;;8.10;96.20;;;;;;5055996;28;20502;-63
2021/04/21 06:55:16;;;;;;;31.42;21.77;;;8.20;94.00;;;;;;5051904;28;20112;-65
2021/04/21 06:57:43;;;;;;;31.40;21.17;;;8.30;93.50;;;;;;5052466;28;20047;-65
2021/04/21 07:00:16;;;;;;;30.17;19.73;;;8.40;93.00;;;;;;5067855;28;20102;-64
2021/04/21 07:02:44;;;;;;;30.67;19.67;;;8.50;92.40;;;;;;5061413;28;20025;-66
2021/04/21 07:05:41;;;;;;;30.70;20.70;;;8.70;91.60;;;;;;5063618;28;20032;-63
2021/04/21 07:08:12;;;;;;;30.00;19.35;;;8.90;90.60;;;;;;5057846;28;20032;-66
2021/04/21 07:10:42;;;;;;;31.70;20.70;;;9.00;90.50;;;;;;5054213;28;20366;-65
2021/04/21 07:13:20;;;;;;;31.65;21.13;;;9.00;89.90;;;;;;5066353;28;20100;-65
2021/04/21 07:15:49;;;;;;;30.35;19.80;;;9.10;89.10;;;;;;5057047;28;20170;-67
2021/04/21 07:18:17;;;;;;;30.52;21.05;;;9.20;87.40;;;;;;5068129;28;20116;-65
2021/04/21 07:20:43;;;;;;;29.00;19.30;;;9.30;87.50;;;;;;5053707;28;20029;-64
2021/04/21 07:23:11;;;;;;;29.23;20.10;;;9.30;86.90;;;;;;5055504;28;20059;-64
2021/04/21 07:25:38;;;;;;;33.58;21.20;;;9.40;86.70;;;;;;5059390;28;20147;-65
2021/04/21 07:28:05;;;;;;;30.05;21.50;;;9.50;85.90;;;;;;5056852;28;20028;-65
2021/04/21 07:30:34;;;;;;;31.77;20.10;;;9.70;83.80;;;;;;5055014;28;20029;-65
2021/04/21 07:33:00;;;;;;;27.63;19.05;;;9.80;83.70;;;;;;5054411;28;20037;-65
2021/04/21 07:35:27;;;;;;;30.02;21.10;;;9.90;83.30;;;;;;5063678;28;20036;-64
2021/04/21 07:37:56;;;;;;;35.08;21.63;;;10.10;83.00;;;;;;5066450;28;20454;-65
2021/04/21 07:40:39;;;;;;;35.05;21.00;;;10.20;81.40;;;;;;5061679;28;20043;-65
2021/04/21 07:43:11;;;;;;;32.35;20.17;;;10.40;80.90;;;;;;5063438;28;20028;-64
2021/04/21 07:45:48;;;;;;;32.33;20.90;;;10.50;81.00;;;;;;5053813;28;20037;-65
2021/04/21 07:48:32;;;;;;;30.30;20.92;;;10.70;79.20;;;;;;5058429;28;20091;-65
2021/04/21 07:50:59;;;;;;;33.65;21.13;;;10.80;78.80;;;;;;5061619;28;20100;-65
2021/04/21 07:53:25;;;;;;;34.30;20.50;;;11.00;77.70;;;;;;5055565;28;20032;-65
2021/04/21 07:56:03;;;;;;;31.60;19.63;;;11.20;76.20;;;;;;5057794;28;20031;-67
2021/04/21 07:58:29;;;;;;;26.95;18.52;;;11.20;76.50;;;;;;5058169;28;20049;-65
2021/04/21 08:00:55;;;;;;;29.40;19.60;;;11.40;75.30;;;;;;5050644;28;20055;-65
2021/04/21 08:03:24;;;;;;;29.25;19.92;;;11.50;74.90;;;;;;5052729;28;20538;-65
2021/04/21 08:05:54;;;;;;;32.60;20.13;;;11.60;74.30;;;;;;5064436;28;20455;-67
2021/04/21 08:08:36;;;;;;;40.72;20.33;;;11.70;74.50;;;;;;5062693;28;20028;-63
2021/04/21 08:11:04;;;;;;;29.58;19.88;;;11.80;73.60;;;;;;5064325;28;20024;-65
2021/04/21 08:13:42;;;;;;;28.13;20.65;;;11.90;73.10;;;;;;5051216;28;20032;-62
2021/04/21 08:16:31;;;;;;;28.10;19.85;;;12.00;73.50;;;;;;5061355;28;20028;-65
2021/04/21 08:19:03;;;;;;;31.83;20.83;;;12.20;73.10;;;;;;5064464;28;20543;-65
2021/04/21 08:21:35;;;;;;;34.47;21.65;;;12.30;72.60;;;;;;5068694;28;20039;-62
2021/04/21 08:24:04;;;;;;;34.25;20.45;;;12.60;73.50;;;;;;5053946;28;20470;-59
2021/04/21 08:26:30;;;;;;;29.45;21.65;;;12.80;70.80;;;;;;5061496;28;20067;-63
2021/04/21 08:28:56;;;;;;;28.95;20.52;;;12.90;71.00;;;;;;5051177;28;20125;-62
2021/04/21 08:31:26;;;;;;;27.50;20.83;;;13.10;68.90;;;;;;5058313;28;20029;-61
2021/04/21 08:33:52;;;;;;;;;;;13.20;69.50;;;;;;5066083;28;20446;-66
2021/04/21 08:36:19;;;;;;;31.38;20.95;;;13.30;67.00;;;;;;5053123;28;19997;-62
2021/04/21 08:38:48;;;;;;;30.63;20.00;;;13.50;67.40;;;;;;5072156;28;20063;-65
2021/04/21 08:41:17;;;;;;;28.57;19.93;;;13.60;66.50;;;;;;5057102;28;20513;-60
2021/04/21 08:43:49;;;;;;;35.38;21.48;;;13.70;65.30;;;;;;5055572;28;20290;-64
2021/04/21 08:46:17;;;;;;;29.17;20.77;;;14.00;64.30;;;;;;5058369;28;20029;-65
2021/04/21 08:48:44;;;;;;;31.58;19.85;;;14.10;64.00;;;;;;5059405;28;20564;-65
2021/04/21 08:51:16;;;;;;;29.10;19.08;;;14.10;64.50;;;;;;5070029;28;20021;-63
2021/04/21 08:53:46;;;;;;;40.08;22.27;;;14.20;64.20;;;;;;5053713;28;20038;-64
2021/04/21 08:56:17;;;;;;;32.03;19.65;;;14.40;63.70;;;;;;5069135;28;20839;-64
2021/04/21 08:58:44;;;;;;;27.95;19.23;;;14.40;63.00;;;;;;5063818;28;20118;-64
2021/04/21 09:01:12;;;;;;;26.90;18.10;;;14.60;62.40;;;;;;5063537;28;20029;-63
2021/04/21 09:03:38;;;;;;;23.52;16.77;;;14.70;59.80;;;;;;5059913;28;20496;-62
2021/04/21 09:06:04;;;;;;;26.80;18.98;;;14.80;59.30;;;;;;5068483;28;20063;-64
2021/04/21 09:08:31;;;;;;;26.90;16.48;;;15.10;57.80;;;;;;5056409;28;20024;-62
2021/04/21 09:10:57;;;;;;;21.30;16.58;;;15.10;57.10;;;;;;5061983;28;20104;-64
2021/04/21 09:13:23;;;;;;;23.80;17.15;;;15.20;57.50;;;;;;5055799;28;20105;-63
2021/04/21 09:15:49;;;;;;;23.55;17.25;;;15.20;56.00;;;;;;5065673;28;20029;-64
2021/04/21 09:18:24;;;;;;;18.88;14.65;;;15.40;57.30;;;;;;5057301;28;20017;-61
2021/04/21 09:20:50;;;;;;;19.85;15.32;;;15.40;56.10;;;;;;5071782;28;20089;-63
2021/04/21 09:23:18;;;;;;;23.48;16.13;;;15.60;52.70;;;;;;5065818;28;20469;-63
2021/04/21 09:25:49;;;;;;;18.77;14.75;;;15.70;55.00;;;;;;5073949;28;20032;-64
2021/04/21 09:28:19;;;;;;;19.13;13.23;;;15.70;53.70;;;;;;5060378;28;20029;-64
2021/04/21 09:30:58;;;;;;;18.65;12.60;;;15.70;51.70;;;;;;5073252;28;20028;-62
2021/04/21 09:33:28;;;;;;;19.20;15.15;;;15.80;52.00;;;;;;5067213;28;20025;-61
2021/04/21 09:35:54;;;;;;;;;;;15.80;53.00;;;;;;5071612;28;20040;-67
2021/04/21 09:38:27;;;;;;;20.45;15.27;;;15.80;53.40;;;;;;5067754;28;19916;-64
2021/04/21 09:40:56;;;;;;;20.88;15.70;;;16.00;53.90;;;;;;5064783;28;20032;-66
2021/04/21 09:43:26;;;;;;;18.48;15.02;;;16.20;53.90;;;;;;5068137;28;20033;-64
2021/04/21 09:45:58;;;;;;;20.42;14.27;;;16.30;54.10;;;;;;5056591;28;20036;-64
2021/04/21 09:48:28;;;;;;;19.77;15.57;;;16.50;54.20;;;;;;5059119;28;20125;-63
2021/04/21 09:51:10;;;;;;;19.58;15.05;;;16.70;50.40;;;;;;5060421;28;20052;-66
2021/04/21 09:53:37;;;;;;;17.52;14.15;;;16.80;49.50;;;;;;5054920;28;20037;-64
2021/04/21 09:56:02;;;;;;;16.23;12.10;;;16.90;48.70;;;;;;5073202;28;20028;-64
2021/04/21 09:58:40;;;;;;;18.08;13.13;;;16.90;49.00;;;;;;5070093;28;20045;-64
2021/04/21 10:01:26;;;;;;;18.77;14.63;;;17.00;50.40;;;;;;5053076;28;20033;-65
2021/04/21 10:04:04;;;;;;;18.52;13.48;;;17.20;48.60;;;;;;5064048;28;20035;-65
2021/04/21 10:06:30;;;;;;;19.13;14.63;;;17.20;47.80;;;;;;5053525;28;20040;-65
2021/04/21 10:08:56;;;;;;;17.70;13.63;;;17.20;47.70;;;;;;5053840;28;20040;-69
2021/04/21 10:11:22;;;;;;;17.58;13.25;;;17.20;47.90;;;;;;5067190;28;20389;-65
2021/04/21 10:13:54;;;;;;;16.75;13.07;;;17.30;48.70;;;;;;5063814;28;20029;-65
2021/04/21 10:16:21;;;;;;;22.27;13.38;;;17.40;46.90;;;;;;5054449;28;20032;-65
2021/04/21 10:18:48;;;;;;;14.20;10.75;;;17.50;47.10;;;;;;5053454;28;20029;-65
2021/04/21 10:21:15;;;;;;;13.80;11.38;;;17.60;47.60;;;;;;5052517;28;20040;-63
2021/04/21 10:23:44;;;;;;;14.85;11.82;;;17.70;46.50;;;;;;5053757;28;20025;-64
2021/04/21 10:26:12;;;;;;;13.93;11.32;;;17.90;45.30;;;;;;5052414;28;20032;-63
2021/04/21 10:28:40;;;;;;;16.70;12.30;;;18.10;43.80;;;;;;5053486;28;20040;-63
2021/04/21 10:31:09;;;;;;;12.45;9.55;;;18.20;43.50;;;;;;5050936;28;20079;-63
2021/04/21 10:33:36;;;;;;;15.43;12.80;;;18.20;41.00;;;;;;5060699;28;20047;-63
2021/04/21 10:36:02;;;;;;;15.68;12.77;;;18.20;44.80;;;;;;5070289;28;20386;-62
2021/04/21 10:38:29;;;;;;;13.38;11.38;;;18.30;45.20;;;;;;5070728;28;20037;-64
2021/04/21 10:41:21;;;;;;;15.73;12.48;;;18.30;42.30;;;;;;5060843;28;20068;-68
2021/04/21 10:43:49;;;;;;;17.33;10.50;;;18.40;44.20;;;;;;5061060;28;20029;-63
2021/04/21 10:46:15;;;;;;;12.02;9.05;;;18.50;42.90;;;;;;5065378;28;20610;-64
2021/04/21 10:48:44;;;;;;;11.10;9.68;;;18.70;42.40;;;;;;5053456;28;20482;-64
2021/04/21 10:51:35;;;;;;;13.25;10.65;;;18.60;42.40;;;;;;5052056;28;20029;-64
2021/04/21 10:54:09;;;;;;;15.52;10.32;;;18.50;41.80;;;;;;5059294;28;20029;-64
2021/04/21 10:56:37;;;;;;;14.18;9.70;;;18.30;40.50;;;;;;5075013;28;20433;-64
2021/04/21 10:59:04;;;;;;;17.20;13.18;;;18.20;41.30;;;;;;5066634;28;20048;-64
2021/04/21 11:01:38;;;;;;;20.52;11.68;;;18.40;42.50;;;;;;5064428;28;20134;-63
2021/04/21 11:04:05;;;;;;;11.57;9.63;;;18.30;41.70;;;;;;5065205;28;20115;-64
2021/04/21 11:06:40;;;;;;;17.27;11.40;;;18.30;42.30;;;;;;5070753;28;20040;-64
2021/04/21 11:09:11;;;;;;;12.85;10.88;;;18.40;42.50;;;;;;5052395;28;20494;-64
2021/04/21 11:11:48;;;;;;;13.55;10.93;;;18.70;42.80;;;;;;5071776;28;20025;-65
2021/04/21 11:14:34;;;;;;;12.98;9.45;;;19.00;40.70;;;;;;5062112;28;20550;-65
2021/04/21 11:17:07;;;;;;;14.55;11.43;;;19.40;40.00;;;;;;5071013;28;20028;-65
2021/04/21 11:19:42;;;;;;;12.00;9.15;;;19.70;38.60;;;;;;5069218;28;20027;-64
2021/04/21 11:22:25;;;;;;;14.82;10.88;;;19.90;38.40;;;;;;5058898;28;20474;-64
2021/04/21 11:25:20;;;;;;;11.38;10.18;;;20.10;38.00;;;;;;5059843;28;20040;-65
2021/04/21 11:27:46;;;;;;;11.30;9.63;;;20.10;37.90;;;;;;5058919;28;20025;-65
2021/04/21 11:30:34;;;;;;;10.88;9.05;;;20.20;37.30;;;;;;5051693;28;20390;-64
2021/04/21 11:32:59;;;;;;;13.68;9.70;;;20.20;37.20;;;;;;5053434;28;20053;-68
2021/04/21 11:35:32;;;;;;;12.27;9.88;;;20.30;38.10;;;;;;5065945;28;20066;-65
2021/04/21 11:37:58;;;;;;;13.10;9.23;;;20.30;36.80;;;;;;5070126;28;20033;-67
2021/04/21 11:40:32;;;;;;;11.95;9.57;;;20.30;36.80;;;;;;5070054;28;20111;-65
2021/04/21 11:43:17;;;;;;;13.02;9.93;;;20.10;36.60;;;;;;5061724;28;20428;-68
2021/04/21 11:45:44;;;;;;;10.52;8.50;;;20.40;34.50;;;;;;5052058;28;20044;-65
2021/04/21 11:48:09;;;;;;;11.55;9.35;;;20.50;37.10;;;;;;5064065;28;20040;-65
2021/04/21 11:50:41;;;;;;;12.73;9.85;;;20.70;36.90;;;;;;5061645;28;20028;-65
2021/04/21 11:53:07;;;;;;;13.32;9.70;;;20.80;36.80;;;;;;5070031;28;20035;-64
2021/04/21 11:55:36;;;;;;;12.80;8.63;;;21.00;35.10;;;;;;5060551;28;20024;-67
2021/04/21 11:58:18;;;;;;;12.07;8.90;;;21.10;35.80;;;;;;5058454;28;20041;-66
2021/04/21 12:00:49;;;;;;;12.23;9.20;;;21.00;34.70;;;;;;5061784;28;20063;-65
2021/04/21 12:03:25;;;;;;;12.90;9.45;;;21.20;35.50;;;;;;5064148;28;20025;-64
2021/04/21 12:05:57;;;;;;;11.35;7.97;;;21.50;35.00;;;;;;5068001;28;20024;-63
2021/04/21 12:08:28;;;;;;;10.98;9.52;;;21.60;35.70;;;;;;5068841;28;20061;-64
2021/04/21 12:10:55;;;;;;;10.52;8.20;;;21.80;34.80;;;;;;5056002;28;20035;-64
2021/04/21 12:13:35;;;;;;;12.90;9.95;;;21.80;34.90;;;;;;5049834;28;20206;-67
2021/04/21 12:16:12;;;;;;;;;;;22.30;33.10;;;;;;5059817;28;20047;-68
2021/04/21 12:18:48;;;;;;;10.95;8.68;;;22.30;34.00;;;;;;5070712;28;19909;-65
2021/04/21 12:21:17;;;;;;;8.00;7.20;;;22.50;33.30;;;;;;5062147;28;20040;-65
2021/04/21 12:23:43;;;;;;;8.70;7.80;;;22.60;34.40;;;;;;5069520;28;20124;-65
2021/04/21 12:26:29;;;;;;;8.85;7.78;;;22.90;32.00;;;;;;5051698;28;20036;-66
2021/04/21 12:29:02;;;;;;;7.93;7.10;;;23.10;31.80;;;;;;5059324;28;20033;-65
2021/04/21 12:31:30;;;;;;;10.98;8.93;;;23.30;31.20;;;;;;5051265;28;20116;-65
2021/04/21 12:34:01;;;;;;;9.82;7.60;;;23.00;30.20;;;;;;5065229;28;20097;-64
2021/04/21 12:36:30;;;;;;;10.93;7.80;;;22.50;32.40;;;;;;5067691;28;20033;-65
2021/04/21 12:39:15;;;;;;;10.50;8.00;;;21.90;32.80;;;;;;5051759;28;20029;-65
2021/04/21 12:42:00;;;;;;;10.98;8.90;;;21.30;33.40;;;;;;5051055;28;20036;-60
2021/04/21 12:44:32;;;;;;;13.85;9.70;;;20.90;34.40;;;;;;5054349;28;20528;-63
2021/04/21 12:47:09;;;;;;;9.85;8.48;;;20.70;33.80;;;;;;5057156;28;20025;-64
2021/04/21 12:49:47;;;;;;;11.70;8.95;;;20.40;35.30;;;;;;5067896;28;20485;-63
2021/04/21 12:52:15;;;;;;;11.48;8.95;;;20.30;34.80;;;;;;5051394;28;20018;-65
2021/04/21 12:54:43;;;;;;;13.77;10.05;;;20.70;35.10;;;;;;5056594;28;20036;-65
2021/04/21 12:57:12;;;;;;;15.18;11.88;;;21.30;34.70;;;;;;5051184;28;20458;-65
2021/04/21 12:59:46;;;;;;;11.50;9.60;;;21.50;34.60;;;;;;5051179;28;20045;-65
2021/04/21 13:02:16;;;;;;;11.73;10.18;;;21.60;35.10;;;;;;5058997;28;20025;-65
2021/04/21 13:04:46;;;;;;;11.23;9.02;;;21.90;33.90;;;;;;5058104;28;20033;-65
2021/04/21 13:07:19;;;;;;;;;;;21.60;35.50;;;;;;5066585;28;20033;-65